Cape Dorset Airport
CYTE : now visible

Airfield :











YOU CAN JOIN US ON...

 
LOGIN :

Register | Disclaimer

   EN    FR    IT 

 









Legend :    VFR   Marginal VFR   IFR   Intensive IFR   Very Intensive IFR
Visi :
Ceiling :
>= 8 km
>= 3000ft
5 to 8 km
1000 to 3000 ft
1500m to 5 km
500 to 1000 ft
800 to 1500m
200 to 500 ft
< 800m
< 200 ft
Symbols :   Thunderstorms  Fog  Heavy snow  Heavy precipitations  Wind > 20 kt






- Airport Elevation : 164 ft
- IATA code : YTE


CYTE - Cape Dorset

CURRENT METAR :
  • 291229Z 05009KT 15SM -SN FEW008 BKN022 OVC038 M08/M09 A2955 RMK SF2SC4SC2 SLP013

EXPIRED METARs :
  • 291200Z 36003KT 320V070 15SM FEW006 SCT020 BKN040 M09/M09 A2955 RMK SF2SC2SC3 SLP013
  • 291100Z 02007KT 15SM FEW006 M10/M11 A2955 RMK SF2 SNW CVR/TRACE LOOSE SLP012
  • 291025Z AUTO VRB03KT 9SM -SN FEW006 M10/M11 A2955 RMK SLP013
  • 291000Z AUTO VRB04KT 9SM CLR M10/M11 A2955 RMK SLP013

TAF TAF CYTE
Valid from the 29 at 13:00 until the 30 at 01:00 UTC


291238Z 2913/3001 02005KT P6SM FEW006 SCT020 BKN040
TEMPO 2913/2915 5SM -SN SCT006 BKN020 OVC040
FM291500 03008KT P6SM SCT040
TEMPO 2915/3001 BKN040
BECMG 2920/2922 35005KT RMK NXT FCST BY 291900Z
CZEG FIR / North America



MET'MAP, your aeronautical weather chart ! - Copyright ORBIFLY December 2007 - Disclaimer

ORBIFLY MET'MAP TEAM :

Programming & Development : Alexandra Zaïnal
Concept & original design : Baudouin d'Aumeries
Assistance for programming : Marc-Olivier Méhu
Technical & hardware support : Manuel Goepfert

Contact : metmap@orbifly.com




SOURCES & CREDITS :

   NOAA       Earth
Advisory